sensor_id;sensor_type;location;lat;lon;timestamp;P1;durP1;ratioP1;P2;durP2;ratioP2
15970;SDS011;59785;52.582;13.892;2022-12-18T00:02:00;40.40;;;19.17;;
15970;SDS011;59785;52.582;13.892;2022-12-18T00:04:26;38.33;;;18.02;;
15970;SDS011;59785;52.582;13.892;2022-12-18T00:06:53;42.00;;;18.15;;
15970;SDS011;59785;52.582;13.892;2022-12-18T00:09:20;43.03;;;18.88;;
15970;SDS011;59785;52.582;13.892;2022-12-18T00:11:49;44.13;;;20.15;;
15970;SDS011;59785;52.582;13.892;2022-12-18T00:14:15;46.03;;;21.80;;
15970;SDS011;59785;52.582;13.892;2022-12-18T00:16:44;49.78;;;21.27;;
15970;SDS011;59785;52.582;13.892;2022-12-18T00:19:12;50.13;;;21.70;;
15970;SDS011;59785;52.582;13.892;2022-12-18T00:21:39;52.65;;;20.33;;
15970;SDS011;59785;52.582;13.892;2022-12-18T00:24:05;51.45;;;21.40;;
15970;SDS011;59785;52.582;13.892;2022-12-18T00:26:32;56.50;;;22.95;;
15970;SDS011;59785;52.582;13.892;2022-12-18T00:29:01;49.60;;;22.10;;
15970;SDS011;59785;52.582;13.892;2022-12-18T00:31:30;53.53;;;22.48;;
15970;SDS011;59785;52.582;13.892;2022-12-18T00:33:59;64.53;;;25.02;;
15970;SDS011;59785;52.582;13.892;2022-12-18T00:36:30;56.58;;;23.67;;
15970;SDS011;59785;52.582;13.892;2022-12-18T00:38:59;66.07;;;24.52;;
15970;SDS011;59785;52.582;13.892;2022-12-18T00:41:27;64.72;;;24.42;;
15970;SDS011;59785;52.582;13.892;2022-12-18T00:44:13;62.25;;;24.52;;
15970;SDS011;59785;52.582;13.892;2022-12-18T00:46:40;60.00;;;24.70;;
15970;SDS011;59785;52.582;13.892;2022-12-18T00:49:08;58.45;;;25.02;;
15970;SDS011;59785;52.582;13.892;2022-12-18T00:51:34;59.42;;;22.70;;
15970;SDS011;59785;52.582;13.892;2022-12-18T00:54:00;58.22;;;24.13;;
15970;SDS011;59785;52.582;13.892;2022-12-18T00:56:26;55.25;;;21.48;;
15970;SDS011;59785;52.582;13.892;2022-12-18T00:58:53;47.75;;;20.40;;
15970;SDS011;59785;52.582;13.892;2022-12-18T01:01:19;45.47;;;20.50;;
15970;SDS011;59785;52.582;13.892;2022-12-18T01:03:45;45.63;;;19.23;;
15970;SDS011;59785;52.582;13.892;2022-12-18T01:06:14;47.20;;;20.15;;
15970;SDS011;59785;52.582;13.892;2022-12-18T01:08:41;49.42;;;19.67;;
15970;SDS011;59785;52.582;13.892;2022-12-18T01:11:11;40.00;;;17.17;;
15970;SDS011;59785;52.582;13.892;2022-12-18T01:13:40;46.85;;;17.90;;
15970;SDS011;59785;52.582;13.892;2022-12-18T01:16:07;44.45;;;18.88;;
15970;SDS011;59785;52.582;13.892;2022-12-18T01:18:35;40.05;;;19.42;;
15970;SDS011;59785;52.582;13.892;2022-12-18T01:21:05;41.53;;;17.65;;
15970;SDS011;59785;52.582;13.892;2022-12-18T01:23:35;41.83;;;18.13;;
15970;SDS011;59785;52.582;13.892;2022-12-18T01:26:05;41.47;;;17.50;;
15970;SDS011;59785;52.582;13.892;2022-12-18T01:28:33;41.05;;;18.02;;
15970;SDS011;59785;52.582;13.892;2022-12-18T01:31:19;37.75;;;16.85;;
15970;SDS011;59785;52.582;13.892;2022-12-18T01:33:47;30.58;;;15.23;;
15970;SDS011;59785;52.582;13.892;2022-12-18T01:36:14;34.42;;;16.75;;
15970;SDS011;59785;52.582;13.892;2022-12-18T01:38:45;36.58;;;16.83;;
15970;SDS011;59785;52.582;13.892;2022-12-18T01:41:12;40.75;;;18.80;;
15970;SDS011;59785;52.582;13.892;2022-12-18T01:43:43;36.90;;;17.35;;
15970;SDS011;59785;52.582;13.892;2022-12-18T01:46:09;37.00;;;17.30;;
15970;SDS011;59785;52.582;13.892;2022-12-18T01:48:36;35.20;;;16.90;;
15970;SDS011;59785;52.582;13.892;2022-12-18T01:51:04;36.35;;;17.13;;
15970;SDS011;59785;52.582;13.892;2022-12-18T01:53:32;34.90;;;15.93;;
15970;SDS011;59785;52.582;13.892;2022-12-18T01:55:59;34.83;;;16.83;;
15970;SDS011;59785;52.582;13.892;2022-12-18T02:01:14;35.45;;;16.75;;
15970;SDS011;59785;52.582;13.892;2022-12-18T02:03:41;35.53;;;15.70;;
15970;SDS011;59785;52.582;13.892;2022-12-18T02:06:11;33.22;;;14.75;;
15970;SDS011;59785;52.582;13.892;2022-12-18T02:08:46;33.28;;;16.13;;
15970;SDS011;59785;52.582;13.892;2022-12-18T02:11:26;31.60;;;14.60;;
15970;SDS011;59785;52.582;13.892;2022-12-18T02:14:34;37.38;;;14.35;;
15970;SDS011;59785;52.582;13.892;2022-12-18T02:17:06;34.25;;;14.90;;
15970;SDS011;59785;52.582;13.892;2022-12-18T02:23:01;32.08;;;14.85;;
15970;SDS011;59785;52.582;13.892;2022-12-18T02:28:21;31.60;;;15.07;;
15970;SDS011;59785;52.582;13.892;2022-12-18T02:30:51;35.33;;;15.80;;
15970;SDS011;59785;52.582;13.892;2022-12-18T02:33:25;35.00;;;15.13;;
15970;SDS011;59785;52.582;13.892;2022-12-18T02:35:54;34.97;;;15.27;;
15970;SDS011;59785;52.582;13.892;2022-12-18T02:38:24;38.08;;;16.05;;
15970;SDS011;59785;52.582;13.892;2022-12-18T02:40:52;39.53;;;17.95;;
15970;SDS011;59785;52.582;13.892;2022-12-18T02:43:21;38.20;;;16.02;;
15970;SDS011;59785;52.582;13.892;2022-12-18T02:45:50;32.30;;;15.60;;
15970;SDS011;59785;52.582;13.892;2022-12-18T02:48:18;37.40;;;16.30;;
15970;SDS011;59785;52.582;13.892;2022-12-18T02:50:54;36.13;;;16.50;;
15970;SDS011;59785;52.582;13.892;2022-12-18T02:54:48;33.88;;;15.05;;
15970;SDS011;59785;52.582;13.892;2022-12-18T02:56:54;34.80;;;15.43;;
15970;SDS011;59785;52.582;13.892;2022-12-18T02:59:30;33.95;;;15.63;;
15970;SDS011;59785;52.582;13.892;2022-12-18T03:04:55;34.60;;;15.90;;
15970;SDS011;59785;52.582;13.892;2022-12-18T03:07:38;32.30;;;16.67;;
15970;SDS011;59785;52.582;13.892;2022-12-18T03:10:13;32.35;;;14.65;;
15970;SDS011;59785;52.582;13.892;2022-12-18T03:12:44;34.47;;;16.27;;
15970;SDS011;59785;52.582;13.892;2022-12-18T03:18:04;38.33;;;15.85;;
15970;SDS011;59785;52.582;13.892;2022-12-18T03:20:34;34.33;;;14.45;;
15970;SDS011;59785;52.582;13.892;2022-12-18T03:23:14;36.40;;;16.38;;
15970;SDS011;59785;52.582;13.892;2022-12-18T03:25:46;36.25;;;16.02;;
15970;SDS011;59785;52.582;13.892;2022-12-18T03:28:19;37.47;;;15.90;;
15970;SDS011;59785;52.582;13.892;2022-12-18T03:30:54;34.83;;;15.80;;
15970;SDS011;59785;52.582;13.892;2022-12-18T03:33:31;37.40;;;16.17;;
15970;SDS011;59785;52.582;13.892;2022-12-18T03:36:06;30.00;;;15.82;;
15970;SDS011;59785;52.582;13.892;2022-12-18T03:38:32;35.20;;;17.98;;
15970;SDS011;59785;52.582;13.892;2022-12-18T03:40:59;35.67;;;17.02;;
15970;SDS011;59785;52.582;13.892;2022-12-18T03:43:51;41.30;;;16.92;;
15970;SDS011;59785;52.582;13.892;2022-12-18T03:47:27;37.92;;;17.40;;
15970;SDS011;59785;52.582;13.892;2022-12-18T03:49:34;38.83;;;16.23;;
15970;SDS011;59785;52.582;13.892;2022-12-18T03:52:05;34.88;;;15.40;;
15970;SDS011;59785;52.582;13.892;2022-12-18T03:54:38;38.60;;;17.63;;
15970;SDS011;59785;52.582;13.892;2022-12-18T03:57:22;38.65;;;17.65;;
15970;SDS011;59785;52.582;13.892;2022-12-18T03:59:54;41.40;;;16.75;;
15970;SDS011;59785;52.582;13.892;2022-12-18T04:02:27;37.42;;;15.77;;
15970;SDS011;59785;52.582;13.892;2022-12-18T04:04:59;41.50;;;17.50;;
15970;SDS011;59785;52.582;13.892;2022-12-18T04:07:29;41.53;;;16.70;;
15970;SDS011;59785;52.582;13.892;2022-12-18T04:09:57;32.45;;;16.30;;
15970;SDS011;59785;52.582;13.892;2022-12-18T04:12:26;39.17;;;16.85;;
15970;SDS011;59785;52.582;13.892;2022-12-18T04:14:55;41.25;;;17.13;;
15970;SDS011;59785;52.582;13.892;2022-12-18T04:17:21;37.88;;;16.33;;
15970;SDS011;59785;52.582;13.892;2022-12-18T04:19:48;36.35;;;16.23;;
15970;SDS011;59785;52.582;13.892;2022-12-18T04:22:15;37.50;;;16.33;;
15970;SDS011;59785;52.582;13.892;2022-12-18T04:24:45;36.40;;;15.82;;
15970;SDS011;59785;52.582;13.892;2022-12-18T04:27:23;36.55;;;16.00;;
15970;SDS011;59785;52.582;13.892;2022-12-18T04:29:49;36.33;;;14.88;;
15970;SDS011;59785;52.582;13.892;2022-12-18T04:32:17;32.50;;;15.05;;
15970;SDS011;59785;52.582;13.892;2022-12-18T04:34:43;32.28;;;15.68;;
15970;SDS011;59785;52.582;13.892;2022-12-18T04:37:09;36.40;;;16.35;;
15970;SDS011;59785;52.582;13.892;2022-12-18T04:39:36;33.15;;;15.55;;
15970;SDS011;59785;52.582;13.892;2022-12-18T04:42:08;36.25;;;16.92;;
15970;SDS011;59785;52.582;13.892;2022-12-18T04:44:34;37.42;;;15.95;;
15970;SDS011;59785;52.582;13.892;2022-12-18T04:47:00;36.25;;;16.02;;
15970;SDS011;59785;52.582;13.892;2022-12-18T04:49:26;36.13;;;16.58;;
15970;SDS011;59785;52.582;13.892;2022-12-18T04:51:52;36.72;;;15.73;;
15970;SDS011;59785;52.582;13.892;2022-12-18T04:54:20;40.45;;;18.60;;
15970;SDS011;59785;52.582;13.892;2022-12-18T13:53:29;27.73;;;15.25;;
15970;SDS011;59785;52.582;13.892;2022-12-18T13:55:59;31.25;;;14.75;;
15970;SDS011;59785;52.582;13.892;2022-12-18T13:58:25;29.23;;;14.13;;
15970;SDS011;59785;52.582;13.892;2022-12-18T14:00:52;29.08;;;15.30;;
15970;SDS011;59785;52.582;13.892;2022-12-18T14:03:19;31.95;;;15.88;;
15970;SDS011;59785;52.582;13.892;2022-12-18T14:05:55;32.72;;;15.98;;
15970;SDS011;59785;52.582;13.892;2022-12-18T14:08:26;35.97;;;15.55;;
15970;SDS011;59785;52.582;13.892;2022-12-18T14:10:58;30.65;;;14.57;;
15970;SDS011;59785;52.582;13.892;2022-12-18T14:13:26;28.13;;;14.77;;
15970;SDS011;59785;52.582;13.892;2022-12-18T14:15:56;31.48;;;14.57;;
15970;SDS011;59785;52.582;13.892;2022-12-18T14:18:34;35.30;;;16.80;;
15970;SDS011;59785;52.582;13.892;2022-12-18T14:21:02;37.78;;;15.82;;
15970;SDS011;59785;52.582;13.892;2022-12-18T14:25:55;38.63;;;17.27;;
15970;SDS011;59785;52.582;13.892;2022-12-18T14:28:30;36.20;;;16.75;;
15970;SDS011;59785;52.582;13.892;2022-12-18T14:30:57;32.75;;;16.95;;
15970;SDS011;59785;52.582;13.892;2022-12-18T14:33:24;28.75;;;14.75;;
15970;SDS011;59785;52.582;13.892;2022-12-18T14:35:59;30.90;;;15.30;;
15970;SDS011;59785;52.582;13.892;2022-12-18T14:38:35;31.60;;;15.95;;
15970;SDS011;59785;52.582;13.892;2022-12-18T14:41:05;32.80;;;14.65;;
15970;SDS011;59785;52.582;13.892;2022-12-18T14:43:33;36.42;;;15.93;;
15970;SDS011;59785;52.582;13.892;2022-12-18T14:46:01;36.92;;;18.02;;
15970;SDS011;59785;52.582;13.892;2022-12-18T14:48:33;36.10;;;16.98;;
15970;SDS011;59785;52.582;13.892;2022-12-18T14:51:06;37.83;;;18.88;;
15970;SDS011;59785;52.582;13.892;2022-12-18T14:53:43;31.42;;;17.33;;
15970;SDS011;59785;52.582;13.892;2022-12-18T14:56:22;35.05;;;16.50;;
15970;SDS011;59785;52.582;13.892;2022-12-18T14:58:52;40.85;;;18.83;;
15970;SDS011;59785;52.582;13.892;2022-12-18T15:01:25;37.60;;;17.30;;
15970;SDS011;59785;52.582;13.892;2022-12-18T15:03:54;37.67;;;18.50;;
15970;SDS011;59785;52.582;13.892;2022-12-18T15:06:24;37.15;;;18.80;;
15970;SDS011;59785;52.582;13.892;2022-12-18T15:08:56;37.40;;;18.63;;
15970;SDS011;59785;52.582;13.892;2022-12-18T15:11:34;34.25;;;16.77;;
15970;SDS011;59785;52.582;13.892;2022-12-18T15:17:17;31.92;;;16.27;;
15970;SDS011;59785;52.582;13.892;2022-12-18T15:19:47;36.35;;;17.15;;
15970;SDS011;59785;52.582;13.892;2022-12-18T15:22:17;31.33;;;16.33;;
15970;SDS011;59785;52.582;13.892;2022-12-18T15:24:44;36.70;;;16.52;;
15970;SDS011;59785;52.582;13.892;2022-12-18T15:27:20;39.17;;;17.25;;
15970;SDS011;59785;52.582;13.892;2022-12-18T15:32:34;34.15;;;15.90;;
15970;SDS011;59785;52.582;13.892;2022-12-18T15:37:37;31.08;;;16.15;;
15970;SDS011;59785;52.582;13.892;2022-12-18T15:40:04;34.60;;;17.25;;
15970;SDS011;59785;52.582;13.892;2022-12-18T15:42:31;33.20;;;16.55;;
15970;SDS011;59785;52.582;13.892;2022-12-18T15:45:15;31.88;;;15.52;;
15970;SDS011;59785;52.582;13.892;2022-12-18T15:47:44;39.85;;;18.10;;
15970;SDS011;59785;52.582;13.892;2022-12-18T15:50:10;31.10;;;14.77;;
15970;SDS011;59785;52.582;13.892;2022-12-18T15:52:39;34.85;;;17.13;;
15970;SDS011;59785;52.582;13.892;2022-12-18T15:55:14;31.38;;;15.50;;
15970;SDS011;59785;52.582;13.892;2022-12-18T15:58:07;30.05;;;16.08;;
15970;SDS011;59785;52.582;13.892;2022-12-18T16:00:35;30.33;;;15.38;;
15970;SDS011;59785;52.582;13.892;2022-12-18T16:03:03;33.55;;;18.10;;
15970;SDS011;59785;52.582;13.892;2022-12-18T16:05:31;29.83;;;15.05;;
15970;SDS011;59785;52.582;13.892;2022-12-18T16:07:57;29.75;;;15.10;;
15970;SDS011;59785;52.582;13.892;2022-12-18T16:10:24;37.17;;;16.30;;
15970;SDS011;59785;52.582;13.892;2022-12-18T16:12:52;30.30;;;15.52;;
15970;SDS011;59785;52.582;13.892;2022-12-18T16:15:18;28.25;;;15.82;;
15970;SDS011;59785;52.582;13.892;2022-12-18T16:17:49;31.55;;;15.95;;
15970;SDS011;59785;52.582;13.892;2022-12-18T16:20:19;50.42;;;20.75;;
15970;SDS011;59785;52.582;13.892;2022-12-18T16:22:47;33.88;;;15.38;;
15970;SDS011;59785;52.582;13.892;2022-12-18T16:25:17;34.03;;;18.13;;
15970;SDS011;59785;52.582;13.892;2022-12-18T16:27:45;31.02;;;16.52;;
15970;SDS011;59785;52.582;13.892;2022-12-18T16:30:23;33.75;;;16.15;;
15970;SDS011;59785;52.582;13.892;2022-12-18T16:33:03;34.65;;;16.55;;
15970;SDS011;59785;52.582;13.892;2022-12-18T16:35:29;31.30;;;15.98;;
15970;SDS011;59785;52.582;13.892;2022-12-18T16:37:55;31.17;;;15.63;;
15970;SDS011;59785;52.582;13.892;2022-12-18T16:40:21;29.30;;;15.52;;
15970;SDS011;59785;52.582;13.892;2022-12-18T16:42:47;31.90;;;15.70;;
15970;SDS011;59785;52.582;13.892;2022-12-18T16:45:15;32.65;;;17.42;;
15970;SDS011;59785;52.582;13.892;2022-12-18T16:47:43;32.78;;;15.45;;
15970;SDS011;59785;52.582;13.892;2022-12-18T16:50:10;29.92;;;15.80;;
15970;SDS011;59785;52.582;13.892;2022-12-18T16:52:36;34.63;;;18.52;;
15970;SDS011;59785;52.582;13.892;2022-12-18T16:55:03;29.00;;;14.90;;
15970;SDS011;59785;52.582;13.892;2022-12-18T16:57:30;30.33;;;16.80;;
15970;SDS011;59785;52.582;13.892;2022-12-18T16:59:56;35.80;;;17.35;;
15970;SDS011;59785;52.582;13.892;2022-12-18T17:02:29;33.88;;;17.60;;
15970;SDS011;59785;52.582;13.892;2022-12-18T17:04:56;36.33;;;17.85;;
15970;SDS011;59785;52.582;13.892;2022-12-18T17:07:23;34.55;;;17.00;;
15970;SDS011;59785;52.582;13.892;2022-12-18T17:09:50;42.17;;;18.67;;
15970;SDS011;59785;52.582;13.892;2022-12-18T17:12:19;39.65;;;19.27;;
15970;SDS011;59785;52.582;13.892;2022-12-18T17:14:45;39.47;;;19.67;;
15970;SDS011;59785;52.582;13.892;2022-12-18T17:17:12;47.25;;;20.40;;
15970;SDS011;59785;52.582;13.892;2022-12-18T17:19:48;41.60;;;18.95;;
15970;SDS011;59785;52.582;13.892;2022-12-18T17:22:14;38.67;;;18.80;;
15970;SDS011;59785;52.582;13.892;2022-12-18T17:24:40;37.53;;;18.52;;
15970;SDS011;59785;52.582;13.892;2022-12-18T17:27:06;40.00;;;19.83;;
15970;SDS011;59785;52.582;13.892;2022-12-18T17:29:33;39.10;;;20.00;;
15970;SDS011;59785;52.582;13.892;2022-12-18T17:31:59;40.67;;;20.60;;
15970;SDS011;59785;52.582;13.892;2022-12-18T17:34:26;42.00;;;20.88;;
15970;SDS011;59785;52.582;13.892;2022-12-18T17:36:52;39.50;;;19.23;;
15970;SDS011;59785;52.582;13.892;2022-12-18T17:39:19;42.88;;;20.33;;
15970;SDS011;59785;52.582;13.892;2022-12-18T17:41:46;48.88;;;22.80;;
15970;SDS011;59785;52.582;13.892;2022-12-18T17:44:12;43.67;;;22.83;;
15970;SDS011;59785;52.582;13.892;2022-12-18T17:46:39;40.38;;;20.90;;
15970;SDS011;59785;52.582;13.892;2022-12-18T17:49:05;43.70;;;20.70;;
15970;SDS011;59785;52.582;13.892;2022-12-18T17:51:31;45.17;;;21.98;;
15970;SDS011;59785;52.582;13.892;2022-12-18T17:53:57;48.10;;;23.40;;
15970;SDS011;59785;52.582;13.892;2022-12-18T17:56:24;48.28;;;21.48;;
15970;SDS011;59785;52.582;13.892;2022-12-18T17:58:50;49.65;;;23.30;;
15970;SDS011;59785;52.582;13.892;2022-12-18T18:01:21;48.13;;;22.42;;
15970;SDS011;59785;52.582;13.892;2022-12-18T18:03:49;49.25;;;22.65;;
15970;SDS011;59785;52.582;13.892;2022-12-18T18:06:18;50.45;;;22.65;;
15970;SDS011;59785;52.582;13.892;2022-12-18T18:08:44;53.47;;;24.60;;
15970;SDS011;59785;52.582;13.892;2022-12-18T18:11:12;64.85;;;28.15;;
15970;SDS011;59785;52.582;13.892;2022-12-18T18:13:59;71.50;;;29.80;;
15970;SDS011;59785;52.582;13.892;2022-12-18T18:16:26;60.28;;;26.10;;
15970;SDS011;59785;52.582;13.892;2022-12-18T18:19:00;49.28;;;24.10;;
15970;SDS011;59785;52.582;13.892;2022-12-18T18:21:28;49.08;;;22.75;;
15970;SDS011;59785;52.582;13.892;2022-12-18T18:23:54;47.05;;;22.70;;
15970;SDS011;59785;52.582;13.892;2022-12-18T18:26:24;49.35;;;23.30;;
15970;SDS011;59785;52.582;13.892;2022-12-18T18:28:54;50.70;;;22.08;;
15970;SDS011;59785;52.582;13.892;2022-12-18T18:31:24;43.28;;;22.60;;
15970;SDS011;59785;52.582;13.892;2022-12-18T18:33:51;48.78;;;22.33;;
15970;SDS011;59785;52.582;13.892;2022-12-18T18:36:17;48.72;;;22.55;;
15970;SDS011;59785;52.582;13.892;2022-12-18T18:38:43;49.88;;;23.10;;
15970;SDS011;59785;52.582;13.892;2022-12-18T18:41:13;43.58;;;21.77;;
15970;SDS011;59785;52.582;13.892;2022-12-18T18:43:39;50.80;;;23.48;;
15970;SDS011;59785;52.582;13.892;2022-12-18T18:46:08;50.78;;;24.00;;
15970;SDS011;59785;52.582;13.892;2022-12-18T18:48:38;54.22;;;23.02;;
15970;SDS011;59785;52.582;13.892;2022-12-18T18:51:10;61.42;;;25.58;;
15970;SDS011;59785;52.582;13.892;2022-12-18T18:53:46;56.05;;;24.85;;
15970;SDS011;59785;52.582;13.892;2022-12-18T18:56:14;52.92;;;26.27;;
15970;SDS011;59785;52.582;13.892;2022-12-18T18:59:01;56.92;;;25.45;;
15970;SDS011;59785;52.582;13.892;2022-12-18T19:01:27;52.30;;;23.67;;
15970;SDS011;59785;52.582;13.892;2022-12-18T19:03:53;55.15;;;24.10;;
15970;SDS011;59785;52.582;13.892;2022-12-18T19:06:21;56.83;;;24.23;;
15970;SDS011;59785;52.582;13.892;2022-12-18T19:08:54;50.72;;;23.00;;
15970;SDS011;59785;52.582;13.892;2022-12-18T19:11:21;49.97;;;23.27;;
15970;SDS011;59785;52.582;13.892;2022-12-18T19:14:07;49.15;;;22.33;;
15970;SDS011;59785;52.582;13.892;2022-12-18T19:16:35;58.33;;;23.45;;
15970;SDS011;59785;52.582;13.892;2022-12-18T19:19:02;51.00;;;23.92;;
15970;SDS011;59785;52.582;13.892;2022-12-18T19:21:29;51.50;;;23.55;;
15970;SDS011;59785;52.582;13.892;2022-12-18T19:23:59;49.40;;;23.08;;
15970;SDS011;59785;52.582;13.892;2022-12-18T19:26:26;52.20;;;23.85;;
15970;SDS011;59785;52.582;13.892;2022-12-18T19:28:53;55.45;;;24.63;;
15970;SDS011;59785;52.582;13.892;2022-12-18T19:31:24;56.13;;;23.73;;
15970;SDS011;59785;52.582;13.892;2022-12-18T19:33:58;48.83;;;22.92;;
15970;SDS011;59785;52.582;13.892;2022-12-18T19:36:26;46.30;;;23.90;;
15970;SDS011;59785;52.582;13.892;2022-12-18T19:38:54;49.78;;;22.83;;
15970;SDS011;59785;52.582;13.892;2022-12-18T19:41:23;51.97;;;23.20;;
15970;SDS011;59785;52.582;13.892;2022-12-18T19:43:50;51.28;;;23.52;;
15970;SDS011;59785;52.582;13.892;2022-12-18T19:46:19;58.47;;;23.60;;
15970;SDS011;59785;52.582;13.892;2022-12-18T19:48:47;49.97;;;23.65;;
15970;SDS011;59785;52.582;13.892;2022-12-18T19:53:46;57.40;;;24.88;;
15970;SDS011;59785;52.582;13.892;2022-12-18T19:56:13;60.65;;;26.17;;
15970;SDS011;59785;52.582;13.892;2022-12-18T19:58:41;53.72;;;24.38;;
15970;SDS011;59785;52.582;13.892;2022-12-18T20:01:09;51.90;;;24.17;;
15970;SDS011;59785;52.582;13.892;2022-12-18T20:03:37;60.88;;;26.80;;
15970;SDS011;59785;52.582;13.892;2022-12-18T20:06:08;61.10;;;24.30;;
15970;SDS011;59785;52.582;13.892;2022-12-18T20:08:35;53.85;;;25.00;;
15970;SDS011;59785;52.582;13.892;2022-12-18T20:11:01;58.38;;;23.98;;
15970;SDS011;59785;52.582;13.892;2022-12-18T20:13:28;57.17;;;24.52;;
15970;SDS011;59785;52.582;13.892;2022-12-18T20:15:54;55.92;;;24.10;;
15970;SDS011;59785;52.582;13.892;2022-12-18T20:18:20;54.90;;;26.83;;
15970;SDS011;59785;52.582;13.892;2022-12-18T20:20:47;61.33;;;25.38;;
15970;SDS011;59785;52.582;13.892;2022-12-18T20:23:15;52.33;;;24.45;;
15970;SDS011;59785;52.582;13.892;2022-12-18T20:25:41;51.70;;;24.23;;
15970;SDS011;59785;52.582;13.892;2022-12-18T20:28:07;58.20;;;24.65;;
15970;SDS011;59785;52.582;13.892;2022-12-18T20:30:33;54.88;;;24.52;;
15970;SDS011;59785;52.582;13.892;2022-12-18T20:32:59;59.45;;;23.85;;
15970;SDS011;59785;52.582;13.892;2022-12-18T20:35:26;49.05;;;23.63;;
15970;SDS011;59785;52.582;13.892;2022-12-18T20:37:53;50.97;;;23.48;;
15970;SDS011;59785;52.582;13.892;2022-12-18T20:40:24;59.83;;;26.15;;
15970;SDS011;59785;52.582;13.892;2022-12-18T20:42:51;51.03;;;23.75;;
15970;SDS011;59785;52.582;13.892;2022-12-18T20:45:18;52.40;;;24.13;;
15970;SDS011;59785;52.582;13.892;2022-12-18T20:47:45;59.58;;;24.77;;
15970;SDS011;59785;52.582;13.892;2022-12-18T20:50:11;56.33;;;25.15;;
15970;SDS011;59785;52.582;13.892;2022-12-18T20:52:37;57.30;;;25.27;;
15970;SDS011;59785;52.582;13.892;2022-12-18T20:55:04;53.65;;;24.23;;
15970;SDS011;59785;52.582;13.892;2022-12-18T20:57:31;59.65;;;26.13;;
15970;SDS011;59785;52.582;13.892;2022-12-18T20:59:57;58.53;;;24.67;;
15970;SDS011;59785;52.582;13.892;2022-12-18T21:02:24;57.08;;;26.65;;
15970;SDS011;59785;52.582;13.892;2022-12-18T21:04:50;55.80;;;25.88;;
15970;SDS011;59785;52.582;13.892;2022-12-18T21:07:16;55.67;;;24.65;;
15970;SDS011;59785;52.582;13.892;2022-12-18T21:09:42;51.58;;;25.67;;
15970;SDS011;59785;52.582;13.892;2022-12-18T21:12:10;56.70;;;26.30;;
15970;SDS011;59785;52.582;13.892;2022-12-18T21:15:12;52.47;;;24.55;;
15970;SDS011;59785;52.582;13.892;2022-12-18T21:17:39;58.22;;;26.17;;
15970;SDS011;59785;52.582;13.892;2022-12-18T21:20:10;52.25;;;24.83;;
15970;SDS011;59785;52.582;13.892;2022-12-18T21:22:42;55.30;;;25.35;;
15970;SDS011;59785;52.582;13.892;2022-12-18T21:25:08;54.40;;;23.23;;
15970;SDS011;59785;52.582;13.892;2022-12-18T21:27:34;56.53;;;28.70;;
15970;SDS011;59785;52.582;13.892;2022-12-18T21:30:01;57.95;;;26.42;;
15970;SDS011;59785;52.582;13.892;2022-12-18T21:32:27;51.33;;;25.08;;
15970;SDS011;59785;52.582;13.892;2022-12-18T21:34:58;59.03;;;25.60;;
15970;SDS011;59785;52.582;13.892;2022-12-18T21:37:24;60.03;;;25.65;;
15970;SDS011;59785;52.582;13.892;2022-12-18T21:39:50;61.75;;;25.08;;
15970;SDS011;59785;52.582;13.892;2022-12-18T21:42:16;54.63;;;25.95;;
15970;SDS011;59785;52.582;13.892;2022-12-18T21:45:01;51.30;;;25.08;;
15970;SDS011;59785;52.582;13.892;2022-12-18T21:47:27;56.75;;;26.55;;
15970;SDS011;59785;52.582;13.892;2022-12-18T21:49:54;62.42;;;28.17;;
15970;SDS011;59785;52.582;13.892;2022-12-18T21:52:20;57.90;;;25.77;;
15970;SDS011;59785;52.582;13.892;2022-12-18T21:54:57;55.63;;;25.33;;
15970;SDS011;59785;52.582;13.892;2022-12-18T21:57:33;59.90;;;27.20;;
15970;SDS011;59785;52.582;13.892;2022-12-18T21:59:59;58.97;;;26.13;;
15970;SDS011;59785;52.582;13.892;2022-12-18T22:02:36;56.35;;;25.25;;
15970;SDS011;59785;52.582;13.892;2022-12-18T22:05:03;56.50;;;27.00;;
15970;SDS011;59785;52.582;13.892;2022-12-18T22:07:29;61.95;;;25.70;;
15970;SDS011;59785;52.582;13.892;2022-12-18T22:09:55;50.47;;;25.23;;
15970;SDS011;59785;52.582;13.892;2022-12-18T22:12:23;60.22;;;24.77;;
15970;SDS011;59785;52.582;13.892;2022-12-18T22:15:09;55.60;;;25.30;;
15970;SDS011;59785;52.582;13.892;2022-12-18T22:17:38;63.92;;;28.08;;
15970;SDS011;59785;52.582;13.892;2022-12-18T22:20:04;63.45;;;28.17;;
15970;SDS011;59785;52.582;13.892;2022-12-18T22:22:31;54.55;;;25.10;;
15970;SDS011;59785;52.582;13.892;2022-12-18T22:24:57;62.55;;;26.70;;
15970;SDS011;59785;52.582;13.892;2022-12-18T22:27:23;59.10;;;24.95;;
15970;SDS011;59785;52.582;13.892;2022-12-18T22:29:49;59.80;;;27.13;;
15970;SDS011;59785;52.582;13.892;2022-12-18T22:32:32;52.80;;;26.10;;
15970;SDS011;59785;52.582;13.892;2022-12-18T22:35:00;54.75;;;26.83;;
15970;SDS011;59785;52.582;13.892;2022-12-18T22:37:35;54.80;;;24.92;;
15970;SDS011;59785;52.582;13.892;2022-12-18T22:40:02;64.38;;;27.85;;
15970;SDS011;59785;52.582;13.892;2022-12-18T22:42:28;59.67;;;27.15;;
15970;SDS011;59785;52.582;13.892;2022-12-18T22:44:55;61.80;;;27.20;;
15970;SDS011;59785;52.582;13.892;2022-12-18T22:47:21;68.72;;;28.20;;
15970;SDS011;59785;52.582;13.892;2022-12-18T22:49:54;58.72;;;26.95;;
15970;SDS011;59785;52.582;13.892;2022-12-18T22:52:20;56.05;;;25.25;;
15970;SDS011;59785;52.582;13.892;2022-12-18T22:54:49;55.33;;;26.90;;
15970;SDS011;59785;52.582;13.892;2022-12-18T22:57:15;57.78;;;25.80;;
15970;SDS011;59785;52.582;13.892;2022-12-18T22:59:41;59.00;;;28.45;;
15970;SDS011;59785;52.582;13.892;2022-12-18T23:02:07;59.83;;;25.88;;
15970;SDS011;59785;52.582;13.892;2022-12-18T23:04:33;66.57;;;26.75;;
15970;SDS011;59785;52.582;13.892;2022-12-18T23:07:02;55.63;;;25.55;;
15970;SDS011;59785;52.582;13.892;2022-12-18T23:09:29;61.67;;;26.77;;
15970;SDS011;59785;52.582;13.892;2022-12-18T23:11:55;61.78;;;26.98;;
15970;SDS011;59785;52.582;13.892;2022-12-18T23:14:21;60.20;;;26.50;;
15970;SDS011;59785;52.582;13.892;2022-12-18T23:16:48;59.33;;;26.90;;
15970;SDS011;59785;52.582;13.892;2022-12-18T23:19:16;55.17;;;26.58;;
15970;SDS011;59785;52.582;13.892;2022-12-18T23:21:43;61.13;;;28.77;;
15970;SDS011;59785;52.582;13.892;2022-12-18T23:24:09;68.15;;;30.42;;
15970;SDS011;59785;52.582;13.892;2022-12-18T23:26:35;58.28;;;27.48;;
15970;SDS011;59785;52.582;13.892;2022-12-18T23:29:02;57.05;;;25.67;;
15970;SDS011;59785;52.582;13.892;2022-12-18T23:31:29;57.15;;;26.60;;
15970;SDS011;59785;52.582;13.892;2022-12-18T23:33:58;58.95;;;25.70;;
15970;SDS011;59785;52.582;13.892;2022-12-18T23:36:26;55.13;;;25.77;;
15970;SDS011;59785;52.582;13.892;2022-12-18T23:38:56;60.13;;;27.02;;
15970;SDS011;59785;52.582;13.892;2022-12-18T23:41:24;57.72;;;25.95;;
15970;SDS011;59785;52.582;13.892;2022-12-18T23:43:53;62.35;;;26.55;;
15970;SDS011;59785;52.582;13.892;2022-12-18T23:46:20;58.88;;;26.88;;
15970;SDS011;59785;52.582;13.892;2022-12-18T23:48:50;53.30;;;25.63;;